sensor_id;sensor_type;location;lat;lon;timestamp;P1;durP1;ratioP1;P2;durP2;ratioP2
1122;SDS011;548;48.778;9.252;2022-08-21T00:01:24;16.80;;;15.37;;
1122;SDS011;548;48.778;9.252;2022-08-21T00:03:53;16.03;;;15.23;;
1122;SDS011;548;48.778;9.252;2022-08-21T00:06:20;15.10;;;14.20;;
1122;SDS011;548;48.778;9.252;2022-08-21T00:08:48;14.97;;;14.10;;
1122;SDS011;548;48.778;9.252;2022-08-21T00:11:16;15.37;;;14.30;;
1122;SDS011;548;48.778;9.252;2022-08-21T00:13:43;15.73;;;14.83;;
1122;SDS011;548;48.778;9.252;2022-08-21T00:16:10;15.73;;;14.70;;
1122;SDS011;548;48.778;9.252;2022-08-21T00:18:37;15.13;;;14.40;;
1122;SDS011;548;48.778;9.252;2022-08-21T00:21:04;15.87;;;14.90;;
1122;SDS011;548;48.778;9.252;2022-08-21T00:23:32;16.93;;;15.83;;
1122;SDS011;548;48.778;9.252;2022-08-21T00:25:59;15.73;;;14.87;;
1122;SDS011;548;48.778;9.252;2022-08-21T00:28:27;16.00;;;14.90;;
1122;SDS011;548;48.778;9.252;2022-08-21T00:30:54;15.57;;;14.57;;
1122;SDS011;548;48.778;9.252;2022-08-21T00:33:21;15.53;;;14.60;;
1122;SDS011;548;48.778;9.252;2022-08-21T00:35:48;16.37;;;15.27;;
1122;SDS011;548;48.778;9.252;2022-08-21T00:38:15;14.90;;;14.10;;
1122;SDS011;548;48.778;9.252;2022-08-21T00:40:43;16.03;;;14.97;;
1122;SDS011;548;48.778;9.252;2022-08-21T00:43:14;14.80;;;14.00;;
1122;SDS011;548;48.778;9.252;2022-08-21T00:45:43;15.60;;;14.80;;
1122;SDS011;548;48.778;9.252;2022-08-21T00:48:10;14.80;;;14.10;;
1122;SDS011;548;48.778;9.252;2022-08-21T00:50:38;14.87;;;13.93;;
1122;SDS011;548;48.778;9.252;2022-08-21T00:53:08;15.23;;;14.13;;
1122;SDS011;548;48.778;9.252;2022-08-21T00:55:38;15.00;;;14.20;;
1122;SDS011;548;48.778;9.252;2022-08-21T00:58:06;16.00;;;14.87;;
1122;SDS011;548;48.778;9.252;2022-08-21T01:00:35;16.13;;;15.13;;
1122;SDS011;548;48.778;9.252;2022-08-21T01:03:06;14.63;;;13.83;;
1122;SDS011;548;48.778;9.252;2022-08-21T01:05:36;14.93;;;13.93;;
1122;SDS011;548;48.778;9.252;2022-08-21T01:08:04;16.47;;;15.30;;
1122;SDS011;548;48.778;9.252;2022-08-21T01:10:32;16.50;;;15.30;;
1122;SDS011;548;48.778;9.252;2022-08-21T01:13:00;16.37;;;15.53;;
1122;SDS011;548;48.778;9.252;2022-08-21T01:15:27;15.67;;;14.77;;
1122;SDS011;548;48.778;9.252;2022-08-21T01:17:56;16.10;;;15.30;;
1122;SDS011;548;48.778;9.252;2022-08-21T01:20:25;16.87;;;15.67;;
1122;SDS011;548;48.778;9.252;2022-08-21T01:22:53;13.73;;;13.03;;
1122;SDS011;548;48.778;9.252;2022-08-21T01:25:20;17.43;;;16.20;;
1122;SDS011;548;48.778;9.252;2022-08-21T01:27:46;14.60;;;13.80;;
1122;SDS011;548;48.778;9.252;2022-08-21T01:30:14;14.50;;;13.80;;
1122;SDS011;548;48.778;9.252;2022-08-21T01:32:44;14.93;;;14.20;;
1122;SDS011;548;48.778;9.252;2022-08-21T01:35:12;16.60;;;15.30;;
1122;SDS011;548;48.778;9.252;2022-08-21T01:37:40;14.23;;;13.53;;
1122;SDS011;548;48.778;9.252;2022-08-21T01:40:09;15.50;;;14.80;;
1122;SDS011;548;48.778;9.252;2022-08-21T01:42:36;15.20;;;14.10;;
1122;SDS011;548;48.778;9.252;2022-08-21T01:45:05;14.83;;;14.13;;
1122;SDS011;548;48.778;9.252;2022-08-21T01:47:33;15.50;;;14.40;;
1122;SDS011;548;48.778;9.252;2022-08-21T01:50:00;16.10;;;15.00;;
1122;SDS011;548;48.778;9.252;2022-08-21T01:52:26;16.03;;;15.10;;
1122;SDS011;548;48.778;9.252;2022-08-21T01:54:54;15.23;;;14.37;;
1122;SDS011;548;48.778;9.252;2022-08-21T01:57:22;15.00;;;14.10;;
1122;SDS011;548;48.778;9.252;2022-08-21T01:59:50;16.07;;;15.17;;
1122;SDS011;548;48.778;9.252;2022-08-21T02:02:16;14.77;;;13.87;;
1122;SDS011;548;48.778;9.252;2022-08-21T02:04:43;15.17;;;14.27;;
1122;SDS011;548;48.778;9.252;2022-08-21T18:04:40;13.00;;;12.37;;
1122;SDS011;548;48.778;9.252;2022-08-21T18:07:07;12.87;;;12.20;;
1122;SDS011;548;48.778;9.252;2022-08-21T18:09:34;12.30;;;11.50;;
1122;SDS011;548;48.778;9.252;2022-08-21T18:12:01;13.03;;;12.43;;
1122;SDS011;548;48.778;9.252;2022-08-21T18:14:30;13.00;;;12.33;;
1122;SDS011;548;48.778;9.252;2022-08-21T18:16:59;12.80;;;12.20;;
1122;SDS011;548;48.778;9.252;2022-08-21T18:19:27;13.20;;;12.40;;
1122;SDS011;548;48.778;9.252;2022-08-21T18:21:56;13.00;;;12.20;;
1122;SDS011;548;48.778;9.252;2022-08-21T18:24:22;13.07;;;12.20;;
1122;SDS011;548;48.778;9.252;2022-08-21T18:26:49;14.27;;;13.30;;
1122;SDS011;548;48.778;9.252;2022-08-21T18:29:18;13.90;;;13.20;;
1122;SDS011;548;48.778;9.252;2022-08-21T18:31:46;13.43;;;12.43;;
1122;SDS011;548;48.778;9.252;2022-08-21T18:34:17;14.67;;;13.50;;
1122;SDS011;548;48.778;9.252;2022-08-21T18:36:49;12.30;;;11.80;;
1122;SDS011;548;48.778;9.252;2022-08-21T18:39:16;12.00;;;11.40;;
1122;SDS011;548;48.778;9.252;2022-08-21T18:41:44;12.20;;;11.60;;
1122;SDS011;548;48.778;9.252;2022-08-21T18:44:11;12.23;;;11.63;;
1122;SDS011;548;48.778;9.252;2022-08-21T18:46:48;10.93;;;10.43;;
1122;SDS011;548;48.778;9.252;2022-08-21T18:49:17;12.33;;;11.40;;
1122;SDS011;548;48.778;9.252;2022-08-21T18:51:44;11.97;;;11.07;;
1122;SDS011;548;48.778;9.252;2022-08-21T18:54:12;11.93;;;11.10;;
1122;SDS011;548;48.778;9.252;2022-08-21T18:56:39;13.07;;;12.33;;
1122;SDS011;548;48.778;9.252;2022-08-21T18:59:07;11.50;;;10.90;;
1122;SDS011;548;48.778;9.252;2022-08-21T19:01:35;12.27;;;11.50;;
1122;SDS011;548;48.778;9.252;2022-08-21T19:04:02;12.00;;;11.20;;
1122;SDS011;548;48.778;9.252;2022-08-21T19:06:29;12.57;;;11.67;;
1122;SDS011;548;48.778;9.252;2022-08-21T19:08:57;11.57;;;10.90;;
1122;SDS011;548;48.778;9.252;2022-08-21T19:11:27;12.43;;;11.67;;
1122;SDS011;548;48.778;9.252;2022-08-21T19:13:54;13.00;;;12.03;;
1122;SDS011;548;48.778;9.252;2022-08-21T19:16:21;12.63;;;11.93;;
1122;SDS011;548;48.778;9.252;2022-08-21T19:18:47;13.10;;;12.30;;
1122;SDS011;548;48.778;9.252;2022-08-21T19:21:14;13.53;;;12.53;;
1122;SDS011;548;48.778;9.252;2022-08-21T19:23:41;13.70;;;12.80;;
1122;SDS011;548;48.778;9.252;2022-08-21T19:26:12;13.43;;;12.53;;
1122;SDS011;548;48.778;9.252;2022-08-21T19:28:42;13.70;;;13.03;;
1122;SDS011;548;48.778;9.252;2022-08-21T19:31:14;13.23;;;12.40;;
1122;SDS011;548;48.778;9.252;2022-08-21T19:33:43;13.10;;;12.50;;
1122;SDS011;548;48.778;9.252;2022-08-21T19:36:13;11.90;;;11.20;;
1122;SDS011;548;48.778;9.252;2022-08-21T19:38:40;11.80;;;11.00;;
1122;SDS011;548;48.778;9.252;2022-08-21T19:41:08;13.30;;;12.43;;
1122;SDS011;548;48.778;9.252;2022-08-21T19:43:38;12.70;;;12.00;;
1122;SDS011;548;48.778;9.252;2022-08-21T19:46:08;14.93;;;13.73;;
1122;SDS011;548;48.778;9.252;2022-08-21T19:48:35;12.50;;;11.80;;
1122;SDS011;548;48.778;9.252;2022-08-21T19:51:02;13.63;;;12.93;;
1122;SDS011;548;48.778;9.252;2022-08-21T19:53:29;13.40;;;12.47;;
1122;SDS011;548;48.778;9.252;2022-08-21T19:55:56;12.00;;;11.30;;
1122;SDS011;548;48.778;9.252;2022-08-21T19:58:25;13.73;;;12.63;;
1122;SDS011;548;48.778;9.252;2022-08-21T20:00:58;13.00;;;12.20;;
1122;SDS011;548;48.778;9.252;2022-08-21T20:03:26;12.67;;;11.97;;
1122;SDS011;548;48.778;9.252;2022-08-21T20:05:52;14.70;;;13.77;;
1122;SDS011;548;48.778;9.252;2022-08-21T20:08:20;14.33;;;13.10;;
1122;SDS011;548;48.778;9.252;2022-08-21T20:10:49;14.10;;;13.17;;
1122;SDS011;548;48.778;9.252;2022-08-21T20:13:16;14.27;;;13.27;;
1122;SDS011;548;48.778;9.252;2022-08-21T20:15:45;11.87;;;10.87;;
1122;SDS011;548;48.778;9.252;2022-08-21T20:18:12;13.30;;;12.43;;
1122;SDS011;548;48.778;9.252;2022-08-21T20:20:40;12.57;;;11.67;;
1122;SDS011;548;48.778;9.252;2022-08-21T20:23:07;13.17;;;12.37;;
1122;SDS011;548;48.778;9.252;2022-08-21T20:25:34;12.73;;;11.63;;
1122;SDS011;548;48.778;9.252;2022-08-21T20:28:01;13.13;;;12.50;;
1122;SDS011;548;48.778;9.252;2022-08-21T20:30:29;11.50;;;10.73;;
1122;SDS011;548;48.778;9.252;2022-08-21T20:32:56;13.40;;;12.30;;
1122;SDS011;548;48.778;9.252;2022-08-21T20:35:22;13.63;;;12.37;;
1122;SDS011;548;48.778;9.252;2022-08-21T20:37:50;14.30;;;13.03;;
1122;SDS011;548;48.778;9.252;2022-08-21T20:40:17;14.27;;;13.17;;
1122;SDS011;548;48.778;9.252;2022-08-21T20:42:45;13.00;;;12.00;;
1122;SDS011;548;48.778;9.252;2022-08-21T20:45:16;13.50;;;12.70;;
1122;SDS011;548;48.778;9.252;2022-08-21T20:47:45;13.73;;;12.53;;
1122;SDS011;548;48.778;9.252;2022-08-21T20:50:13;13.53;;;12.50;;
1122;SDS011;548;48.778;9.252;2022-08-21T20:52:47;13.67;;;12.67;;
1122;SDS011;548;48.778;9.252;2022-08-21T20:55:18;14.17;;;13.03;;
1122;SDS011;548;48.778;9.252;2022-08-21T20:57:51;13.57;;;12.60;;
1122;SDS011;548;48.778;9.252;2022-08-21T21:00:22;12.83;;;12.03;;
1122;SDS011;548;48.778;9.252;2022-08-21T21:02:52;14.43;;;13.53;;
1122;SDS011;548;48.778;9.252;2022-08-21T21:05:24;12.83;;;11.97;;
1122;SDS011;548;48.778;9.252;2022-08-21T21:07:57;13.00;;;12.27;;
1122;SDS011;548;48.778;9.252;2022-08-21T21:10:30;13.40;;;12.60;;
1122;SDS011;548;48.778;9.252;2022-08-21T21:13:02;12.73;;;12.13;;
1122;SDS011;548;48.778;9.252;2022-08-21T21:15:34;14.03;;;13.07;;
1122;SDS011;548;48.778;9.252;2022-08-21T21:18:07;13.00;;;12.30;;
1122;SDS011;548;48.778;9.252;2022-08-21T21:20:38;14.20;;;13.40;;
1122;SDS011;548;48.778;9.252;2022-08-21T21:23:11;14.57;;;13.60;;
1122;SDS011;548;48.778;9.252;2022-08-21T21:25:47;13.53;;;12.73;;
1122;SDS011;548;48.778;9.252;2022-08-21T21:28:21;14.50;;;13.50;;
1122;SDS011;548;48.778;9.252;2022-08-21T21:30:54;13.73;;;12.83;;
1122;SDS011;548;48.778;9.252;2022-08-21T21:33:24;14.33;;;13.53;;
1122;SDS011;548;48.778;9.252;2022-08-21T21:35:52;14.87;;;13.83;;
1122;SDS011;548;48.778;9.252;2022-08-21T21:38:26;14.47;;;13.40;;
1122;SDS011;548;48.778;9.252;2022-08-21T21:41:01;13.93;;;13.17;;
1122;SDS011;548;48.778;9.252;2022-08-21T21:43:40;13.63;;;12.63;;
1122;SDS011;548;48.778;9.252;2022-08-21T21:46:23;14.37;;;13.20;;
1122;SDS011;548;48.778;9.252;2022-08-21T21:49:04;13.73;;;12.93;;
1122;SDS011;548;48.778;9.252;2022-08-21T21:51:50;12.90;;;12.13;;
1122;SDS011;548;48.778;9.252;2022-08-21T21:54:30;14.30;;;13.50;;
1122;SDS011;548;48.778;9.252;2022-08-21T21:57:13;13.33;;;12.53;;
1122;SDS011;548;48.778;9.252;2022-08-21T21:59:51;13.47;;;12.70;;
1122;SDS011;548;48.778;9.252;2022-08-21T22:02:26;13.20;;;12.30;;
1122;SDS011;548;48.778;9.252;2022-08-21T22:05:05;14.47;;;13.40;;
1122;SDS011;548;48.778;9.252;2022-08-21T22:07:38;13.60;;;12.40;;
1122;SDS011;548;48.778;9.252;2022-08-21T22:10:10;14.77;;;13.67;;
1122;SDS011;548;48.778;9.252;2022-08-21T22:12:48;14.33;;;13.40;;
1122;SDS011;548;48.778;9.252;2022-08-21T22:15:21;13.93;;;12.50;;
1122;SDS011;548;48.778;9.252;2022-08-21T22:17:48;13.53;;;12.43;;
1122;SDS011;548;48.778;9.252;2022-08-21T22:20:23;15.47;;;13.87;;
1122;SDS011;548;48.778;9.252;2022-08-21T22:22:55;14.63;;;13.30;;
1122;SDS011;548;48.778;9.252;2022-08-21T22:25:23;14.70;;;13.90;;
1122;SDS011;548;48.778;9.252;2022-08-21T22:28:05;13.67;;;12.77;;
1122;SDS011;548;48.778;9.252;2022-08-21T22:30:38;14.93;;;14.10;;
1122;SDS011;548;48.778;9.252;2022-08-21T22:33:08;14.33;;;13.33;;
1122;SDS011;548;48.778;9.252;2022-08-21T22:35:37;14.93;;;13.57;;
1122;SDS011;548;48.778;9.252;2022-08-21T22:38:12;14.80;;;13.80;;
1122;SDS011;548;48.778;9.252;2022-08-21T22:40:41;14.57;;;13.47;;
1122;SDS011;548;48.778;9.252;2022-08-21T22:43:16;13.97;;;12.80;;
1122;SDS011;548;48.778;9.252;2022-08-21T22:45:49;13.67;;;12.87;;
1122;SDS011;548;48.778;9.252;2022-08-21T22:48:22;15.17;;;14.07;;
1122;SDS011;548;48.778;9.252;2022-08-21T22:50:53;13.60;;;12.70;;
1122;SDS011;548;48.778;9.252;2022-08-21T22:53:23;13.50;;;12.60;;
1122;SDS011;548;48.778;9.252;2022-08-21T22:55:53;13.67;;;12.87;;
1122;SDS011;548;48.778;9.252;2022-08-21T22:58:24;13.70;;;13.00;;
1122;SDS011;548;48.778;9.252;2022-08-21T23:00:55;15.73;;;14.63;;
1122;SDS011;548;48.778;9.252;2022-08-21T23:03:27;14.03;;;13.20;;
1122;SDS011;548;48.778;9.252;2022-08-21T23:05:57;15.33;;;14.23;;
1122;SDS011;548;48.778;9.252;2022-08-21T23:08:25;14.37;;;13.57;;
1122;SDS011;548;48.778;9.252;2022-08-21T23:10:57;14.80;;;13.87;;
1122;SDS011;548;48.778;9.252;2022-08-21T23:13:29;15.00;;;14.07;;
1122;SDS011;548;48.778;9.252;2022-08-21T23:16:06;15.57;;;14.67;;
1122;SDS011;548;48.778;9.252;2022-08-21T23:18:48;15.33;;;14.10;;
1122;SDS011;548;48.778;9.252;2022-08-21T23:21:26;14.13;;;13.20;;
1122;SDS011;548;48.778;9.252;2022-08-21T23:24:01;14.93;;;13.83;;
1122;SDS011;548;48.778;9.252;2022-08-21T23:26:41;15.53;;;14.23;;
1122;SDS011;548;48.778;9.252;2022-08-21T23:29:16;15.20;;;14.30;;
1122;SDS011;548;48.778;9.252;2022-08-21T23:31:53;15.97;;;14.67;;
1122;SDS011;548;48.778;9.252;2022-08-21T23:34:31;17.37;;;15.77;;
1122;SDS011;548;48.778;9.252;2022-08-21T23:37:07;15.80;;;14.77;;
1122;SDS011;548;48.778;9.252;2022-08-21T23:40:06;15.73;;;14.83;;
1122;SDS011;548;48.778;9.252;2022-08-21T23:42:54;14.77;;;13.77;;
1122;SDS011;548;48.778;9.252;2022-08-21T23:45:34;15.30;;;14.30;;
1122;SDS011;548;48.778;9.252;2022-08-21T23:48:08;16.10;;;14.93;;
1122;SDS011;548;48.778;9.252;2022-08-21T23:50:43;14.53;;;13.63;;
1122;SDS011;548;48.778;9.252;2022-08-21T23:53:20;16.97;;;15.87;;
1122;SDS011;548;48.778;9.252;2022-08-21T23:55:57;15.70;;;14.73;;
1122;SDS011;548;48.778;9.252;2022-08-21T23:58:39;15.40;;;14.60;;
